Time;durP1;ratioP1;P1;durP2;ratioP2;P2;SDS_P1;SDS_P2;PMS_P1;PMS_P2;Temp;Humidity;BMP_temperature;BMP_pressure;BME280_temperature;BME280_humidity;BME280_pressure;Samples;Min_cycle;Max_cycle;Signal;HPM_P1;HPM_P2
2023/08/14 00:01:33;;;;;;;5.40;3.40;;;18.00;99.90;;;;;;5060627;28;21012;-83
2023/08/14 00:03:59;;;;;;;7.27;2.97;;;18.00;99.90;;;;;;5059897;28;20447;-83
2023/08/14 00:06:26;;;;;;;5.00;3.63;;;18.00;99.90;;;;;;5059894;28;20464;-83
2023/08/14 00:08:53;;;;;;;5.73;3.40;;;18.00;99.90;;;;;;5059473;28;20444;-82
2023/08/14 00:11:21;;;;;;;5.33;2.80;;;18.00;99.90;;;;;;5053435;28;20461;-83
2023/08/14 00:13:52;;;;;;;6.10;3.53;;;18.00;99.90;;;;;;5040025;28;20966;-82
2023/08/14 00:16:19;;;;;;;4.23;2.73;;;18.00;99.90;;;;;;5040506;28;20841;-82
2023/08/14 00:18:46;;;;;;;4.33;2.70;;;18.00;99.90;;;;;;5039853;28;20441;-83
2023/08/14 00:21:13;;;;;;;4.30;2.97;;;18.00;99.90;;;;;;5039258;28;20913;-81
2023/08/14 00:23:40;;;;;;;5.60;3.40;;;18.00;99.90;;;;;;5039565;28;20964;-83
2023/08/14 00:26:07;;;;;;;5.90;3.23;;;18.00;99.90;;;;;;5039032;28;20541;-83
2023/08/14 00:28:35;;;;;;;6.80;3.80;;;18.00;99.90;;;;;;5039237;28;20454;-83
2023/08/14 00:31:02;;;;;;;5.37;3.30;;;18.00;99.90;;;;;;5040751;28;20475;-82
2023/08/14 00:33:28;;;;;;;6.43;3.93;;;18.00;99.90;;;;;;5039270;28;20436;-81
2023/08/14 00:35:55;;;;;;;7.80;3.63;;;18.00;99.90;;;;;;5038778;28;20492;-83
2023/08/14 00:38:22;;;;;;;6.90;3.47;;;18.10;99.90;;;;;;5038862;28;20456;-83
2023/08/14 00:40:51;;;;;;;4.17;2.90;;;18.10;99.90;;;;;;5039621;28;20504;-83
2023/08/14 00:43:18;;;;;;;6.33;3.20;;;18.10;99.90;;;;;;5038833;28;20527;-82
2023/08/14 00:45:47;;;;;;;4.60;3.57;;;18.10;99.90;;;;;;5038811;28;20464;-83
2023/08/14 00:48:14;;;;;;;6.27;3.30;;;18.10;99.90;;;;;;5039384;28;20520;-83
2023/08/14 00:50:41;;;;;;;6.00;2.97;;;18.10;99.90;;;;;;5038769;28;20441;-83
2023/08/14 00:53:09;;;;;;;5.80;3.27;;;18.10;99.90;;;;;;5039564;28;20474;-82
2023/08/14 00:55:36;;;;;;;5.87;3.37;;;18.10;99.90;;;;;;5049076;28;20496;-81
2023/08/14 00:58:03;;;;;;;5.80;3.60;;;18.10;99.90;;;;;;5040697;28;20524;-82
2023/08/14 01:00:30;;;;;;;9.13;3.50;;;18.10;99.90;;;;;;5039214;28;20512;-83
2023/08/14 01:02:59;;;;;;;8.20;3.40;;;18.10;99.90;;;;;;5038957;28;20463;-83
2023/08/14 01:05:26;;;;;;;6.17;3.30;;;18.10;99.90;;;;;;5038475;28;20865;-82
2023/08/14 01:07:53;;;;;;;7.40;3.60;;;18.10;99.90;;;;;;5038948;28;20543;-81
2023/08/14 01:10:21;;;;;;;4.27;3.53;;;18.00;99.90;;;;;;5039157;28;20440;-83
2023/08/14 01:12:53;;;;;;;5.90;3.30;;;18.00;99.90;;;;;;5038762;28;20456;-81
2023/08/14 01:15:26;;;;;;;8.07;3.43;;;18.00;99.90;;;;;;5038489;28;20595;-82
2023/08/14 01:17:58;;;;;;;5.63;3.73;;;18.00;99.90;;;;;;5039000;28;20624;-82
2023/08/14 01:20:29;;;;;;;7.50;3.77;;;18.00;99.90;;;;;;5038323;28;20452;-83
2023/08/14 01:23:06;;;;;;;7.80;3.90;;;18.00;99.90;;;;;;5038712;28;20488;-83
2023/08/14 01:25:37;;;;;;;5.83;3.40;;;18.00;99.90;;;;;;5038279;28;20448;-83
2023/08/14 01:28:06;;;;;;;5.90;3.87;;;18.00;99.90;;;;;;5039158;28;20510;-82
2023/08/14 01:30:33;;;;;;;5.87;3.30;;;18.00;99.90;;;;;;5038849;28;20965;-83
2023/08/14 01:32:59;;;;;;;5.87;4.00;;;18.00;99.90;;;;;;5039798;28;20456;-83
2023/08/14 01:35:31;;;;;;;5.53;3.27;;;18.00;99.90;;;;;;5038261;28;20495;-82
2023/08/14 01:38:03;;;;;;;7.30;3.83;;;17.90;99.90;;;;;;5038978;28;20456;-83
2023/08/14 01:40:39;;;;;;;7.37;4.30;;;17.90;99.90;;;;;;5038035;28;20512;-82
2023/08/14 01:43:11;;;;;;;5.03;3.60;;;17.90;99.90;;;;;;5038689;28;20452;-83
2023/08/14 01:45:39;;;;;;;7.00;3.20;;;17.90;99.90;;;;;;5038253;28;20467;-83
2023/08/14 01:48:08;;;;;;;4.70;3.57;;;17.90;99.90;;;;;;5038463;28;20444;-83
2023/08/14 01:50:37;;;;;;;5.10;3.20;;;17.80;99.90;;;;;;5038162;28;20451;-82
2023/08/14 01:53:04;;;;;;;5.27;3.27;;;17.80;99.90;;;;;;5038823;28;20539;-83
2023/08/14 01:55:31;;;;;;;7.00;5.30;;;17.80;99.90;;;;;;5018405;28;20481;-82
2023/08/14 01:57:59;;;;;;;6.20;3.37;;;17.80;99.90;;;;;;5018447;28;20453;-83
2023/08/14 02:00:26;;;;;;;5.67;3.40;;;17.80;99.90;;;;;;5018693;28;20537;-83
2023/08/14 02:02:56;;;;;;;7.53;3.80;;;17.90;99.90;;;;;;5019641;28;20453;-83
2023/08/14 02:05:22;;;;;;;4.93;3.53;;;17.80;99.90;;;;;;5017785;28;20488;-83
2023/08/14 02:07:49;;;;;;;6.37;3.10;;;17.80;99.90;;;;;;5018089;28;20449;-83
2023/08/14 02:10:16;;;;;;;4.60;3.43;;;17.80;99.90;;;;;;5018843;28;20843;-83
2023/08/14 02:12:43;;;;;;;5.47;3.50;;;17.80;99.90;;;;;;5017794;28;20448;-82
2023/08/14 02:15:11;;;;;;;4.17;3.20;;;17.80;99.90;;;;;;5017559;28;20498;-83
2023/08/14 02:17:38;;;;;;;7.40;3.70;;;17.80;99.90;;;;;;5017723;28;20480;-82
2023/08/14 02:20:06;;;;;;;4.77;3.20;;;17.70;99.90;;;;;;5018297;28;20521;-82
2023/08/14 02:22:32;;;;;;;7.93;3.37;;;17.70;99.90;;;;;;5017916;28;20469;-83
2023/08/14 02:24:59;;;;;;;5.77;3.03;;;17.70;99.90;;;;;;5018337;28;20444;-83
2023/08/14 02:27:26;;;;;;;4.67;3.10;;;17.70;99.90;;;;;;5017655;28;20568;-83
2023/08/14 02:29:53;;;;;;;8.70;2.93;;;17.70;99.90;;;;;;5017773;28;20946;-82
2023/08/14 02:32:21;;;;;;;6.10;3.30;;;17.60;99.90;;;;;;5018692;28;20838;-83
2023/08/14 02:34:49;;;;;;;6.40;3.43;;;17.60;99.90;;;;;;5018310;28;20446;-83
2023/08/14 02:37:17;;;;;;;5.80;3.10;;;17.60;99.90;;;;;;5018212;28;20465;-83
2023/08/14 02:39:44;;;;;;;6.43;3.13;;;17.60;99.90;;;;;;5017737;28;20884;-82
2023/08/14 02:42:12;;;;;;;6.17;3.20;;;17.60;99.90;;;;;;5018242;28;20509;-83
2023/08/14 02:44:39;;;;;;;7.47;3.47;;;17.50;99.90;;;;;;5018031;28;20504;-83
2023/08/14 02:47:06;;;;;;;6.20;2.87;;;17.50;99.90;;;;;;5017399;28;20458;-83
2023/08/14 02:49:34;;;;;;;4.97;3.10;;;17.50;99.90;;;;;;5018146;28;20452;-83
2023/08/14 02:52:01;;;;;;;4.03;3.17;;;17.50;99.90;;;;;;5018811;28;20533;-83
2023/08/14 02:54:28;;;;;;;3.77;3.10;;;17.40;99.90;;;;;;5041514;28;20452;-83
2023/08/14 02:56:55;;;;;;;5.90;3.20;;;17.40;99.90;;;;;;5058414;28;21015;-81
2023/08/14 02:59:22;;;;;;;4.60;3.47;;;17.40;99.90;;;;;;5060749;28;20452;-83
2023/08/14 03:01:49;;;;;;;5.13;3.10;;;17.30;99.90;;;;;;5061470;28;20439;-81
2023/08/14 03:04:16;;;;;;;10.20;3.83;;;17.30;99.90;;;;;;5074379;28;20481;-83
2023/08/14 03:06:45;;;;;;;5.87;3.97;;;17.30;99.90;;;;;;5061301;28;20464;-82
2023/08/14 03:09:12;;;;;;;5.13;2.90;;;17.30;99.90;;;;;;5061791;28;20475;-83
2023/08/14 03:11:38;;;;;;;5.07;3.23;;;17.30;99.90;;;;;;5061507;28;20899;-83
2023/08/14 03:14:05;;;;;;;4.73;3.00;;;17.20;99.90;;;;;;5061304;28;20451;-82
2023/08/14 03:16:32;;;;;;;6.60;3.23;;;17.20;99.90;;;;;;5060746;28;20612;-83
2023/08/14 03:18:59;;;;;;;5.60;2.90;;;17.20;99.90;;;;;;5060628;28;20445;-83
2023/08/14 03:21:26;;;;;;;8.50;3.50;;;17.20;99.90;;;;;;5061233;28;20978;-81
2023/08/14 03:23:54;;;;;;;5.70;3.13;;;17.20;99.90;;;;;;5061537;28;20450;-82
2023/08/14 03:26:21;;;;;;;7.00;3.53;;;17.20;99.90;;;;;;5060589;28;20478;-82
2023/08/14 03:28:48;;;;;;;5.90;3.57;;;17.20;99.90;;;;;;5060707;28;20462;-82
2023/08/14 03:31:14;;;;;;;3.33;2.37;;;17.20;99.90;;;;;;5060315;28;20451;-83
2023/08/14 03:33:41;;;;;;;7.97;3.43;;;17.10;99.90;;;;;;5060983;28;20455;-82
2023/08/14 03:36:08;;;;;;;5.63;3.10;;;17.10;99.90;;;;;;5060672;28;20486;-83
2023/08/14 03:38:35;;;;;;;6.53;2.70;;;17.10;99.90;;;;;;5060477;28;20453;-83
2023/08/14 03:41:04;;;;;;;6.87;3.40;;;17.10;99.90;;;;;;5060648;28;20980;-83
2023/08/14 03:43:31;;;;;;;5.13;3.27;;;17.10;99.90;;;;;;5060519;28;20462;-82
2023/08/14 03:45:58;;;;;;;3.83;2.90;;;17.10;99.90;;;;;;5060331;28;20467;-83
2023/08/14 03:48:24;;;;;;;5.00;3.77;;;17.00;99.90;;;;;;5060781;28;20449;-83
2023/08/14 03:50:51;;;;;;;5.40;3.70;;;17.00;99.90;;;;;;5060724;28;20455;-83
2023/08/14 03:53:18;;;;;;;4.43;3.07;;;17.00;99.90;;;;;;5057747;28;20549;-82
2023/08/14 03:55:45;;;;;;;4.20;2.90;;;17.00;99.90;;;;;;5039740;28;20499;-82
2023/08/14 03:58:13;;;;;;;4.03;3.23;;;17.00;99.90;;;;;;5042424;28;20452;-82
2023/08/14 04:00:40;;;;;;;4.40;3.20;;;17.00;99.90;;;;;;5045192;28;20464;-83
2023/08/14 04:03:07;;;;;;;5.83;3.60;;;16.90;99.90;;;;;;5050365;28;20466;-83
2023/08/14 04:05:39;;;;;;;6.60;4.10;;;16.90;99.90;;;;;;5054691;28;20483;-82
2023/08/14 04:08:06;;;;;;;4.70;3.33;;;16.90;99.90;;;;;;5037432;28;20451;-82
2023/08/14 04:10:33;;;;;;;6.77;3.70;;;16.90;99.90;;;;;;5052184;28;20447;-82
2023/08/14 04:13:00;;;;;;;6.57;4.00;;;16.80;99.90;;;;;;5049686;28;20451;-83
2023/08/14 04:15:28;;;;;;;4.70;3.37;;;16.90;99.90;;;;;;5059386;28;20547;-83
2023/08/14 04:17:55;;;;;;;4.43;2.90;;;16.90;99.90;;;;;;5059926;28;20512;-82
2023/08/14 04:20:22;;;;;;;5.17;3.27;;;16.90;99.90;;;;;;5047850;28;20458;-82
2023/08/14 04:22:49;;;;;;;5.87;3.60;;;16.90;99.90;;;;;;5048022;28;20452;-82
2023/08/14 04:25:18;;;;;;;6.13;3.90;;;16.90;99.90;;;;;;5039734;28;20452;-81
2023/08/14 04:27:45;;;;;;;4.73;3.10;;;16.90;99.90;;;;;;5050370;28;20907;-82
2023/08/14 04:30:12;;;;;;;8.60;3.83;;;16.90;99.90;;;;;;5059355;28;20538;-81
2023/08/14 04:32:41;;;;;;;6.83;2.70;;;16.80;99.90;;;;;;5059683;28;20537;-82
2023/08/14 04:35:09;;;;;;;6.30;3.43;;;16.90;99.90;;;;;;5059169;28;20478;-82
2023/08/14 04:37:35;;;;;;;7.70;3.67;;;16.90;99.90;;;;;;5058652;28;21194;-83
2023/08/14 04:40:04;;;;;;;6.30;3.83;;;16.80;99.90;;;;;;5059758;28;20441;-82
2023/08/14 04:42:31;;;;;;;3.47;2.73;;;16.80;99.90;;;;;;5059007;28;21033;-82
2023/08/14 04:44:58;;;;;;;3.80;3.20;;;16.80;99.90;;;;;;5056565;28;20878;-82
2023/08/14 04:47:25;;;;;;;6.40;3.40;;;16.90;99.90;;;;;;5042854;28;20466;-82
2023/08/14 04:49:53;;;;;;;5.43;3.43;;;16.80;99.90;;;;;;5056658;28;20446;-83
2023/08/14 04:52:22;;;;;;;9.37;3.67;;;16.90;99.90;;;;;;5059266;28;20539;-82
2023/08/14 04:54:49;;;;;;;5.80;4.30;;;16.80;99.90;;;;;;5058786;28;20450;-82
2023/08/14 04:57:15;;;;;;;3.70;3.30;;;16.90;99.90;;;;;;5055183;28;21079;-82
2023/08/14 04:59:42;;;;;;;6.30;3.77;;;16.90;99.90;;;;;;5050821;28;20483;-82
2023/08/14 05:02:09;;;;;;;8.77;3.40;;;16.90;99.90;;;;;;5046649;28;20447;-83
2023/08/14 05:04:36;;;;;;;5.03;3.80;;;16.90;99.90;;;;;;5053852;28;20981;-83
2023/08/14 05:07:04;;;;;;;6.90;4.40;;;16.90;99.90;;;;;;5059374;28;20567;-83
2023/08/14 05:09:31;;;;;;;9.13;3.83;;;17.00;99.90;;;;;;5060102;28;20888;-82
2023/08/14 05:11:58;;;;;;;4.73;3.20;;;17.00;99.90;;;;;;5068437;28;20550;-81
2023/08/14 05:14:25;;;;;;;6.47;3.50;;;17.00;99.90;;;;;;5035790;28;21016;-81
2023/08/14 05:16:52;;;;;;;6.43;3.57;;;17.00;99.90;;;;;;5040915;28;20524;-82
2023/08/14 05:19:19;;;;;;;7.07;4.20;;;17.10;99.90;;;;;;5038301;28;20459;-82
2023/08/14 05:21:46;;;;;;;6.73;3.50;;;17.20;99.90;;;;;;5039789;28;20461;-81
2023/08/14 05:24:15;;;;;;;5.97;3.50;;;17.20;99.90;;;;;;5039922;28;20464;-82
2023/08/14 05:26:42;;;;;;;5.83;3.40;;;17.20;99.90;;;;;;5072528;22;20590;-85
2023/08/14 05:29:08;;;;;;;6.13;3.60;;;17.30;99.90;;;;;;5045270;28;20448;-84
2023/08/14 05:31:35;;;;;;;6.87;4.27;;;17.40;99.90;;;;;;5041496;28;20451;-84
2023/08/14 05:34:02;;;;;;;5.43;3.30;;;17.30;99.90;;;;;;5030860;28;20457;-85
2023/08/14 05:36:29;;;;;;;5.77;3.93;;;17.40;99.90;;;;;;5041613;28;20566;-83
2023/08/14 05:38:56;;;;;;;5.70;3.40;;;17.40;99.90;;;;;;5035521;28;20843;-84
2023/08/14 05:41:24;;;;;;;5.43;3.60;;;17.50;99.90;;;;;;5043863;28;20454;-85
2023/08/14 05:43:51;;;;;;;6.00;3.57;;;17.60;99.90;;;;;;5032517;28;20456;-86
2023/08/14 05:46:23;;;;;;;8.53;3.90;;;17.60;99.90;;;;;;5028780;28;20963;-83
2023/08/14 05:48:50;;;;;;;5.30;3.40;;;17.70;99.90;;;;;;5037071;28;20467;-85
2023/08/14 05:51:17;;;;;;;10.03;3.93;;;17.80;99.90;;;;;;5036273;28;20887;-83
2023/08/14 05:53:44;;;;;;;6.00;3.70;;;17.90;99.90;;;;;;5025071;28;20543;-84
2023/08/14 05:56:11;;;;;;;5.53;3.40;;;18.00;99.90;;;;;;5034466;28;20489;-85
2023/08/14 05:58:39;;;;;;;6.00;3.30;;;18.00;99.90;;;;;;5036838;28;20461;-85
2023/08/14 06:01:06;;;;;;;5.77;3.90;;;18.10;99.90;;;;;;5037069;28;20484;-84
2023/08/14 06:03:33;;;;;;;8.90;4.10;;;18.10;99.90;;;;;;5036990;28;20540;-84
2023/08/14 06:06:00;;;;;;;6.03;3.80;;;18.20;99.90;;;;;;5036579;28;20488;-86
2023/08/14 06:08:27;;;;;;;5.67;4.33;;;18.30;99.90;;;;;;5035927;28;20449;-85
2023/08/14 06:10:54;;;;;;;6.10;3.40;;;18.40;99.90;;;;;;5036467;28;20972;-84
2023/08/14 06:13:21;;;;;;;4.23;3.10;;;18.50;99.90;;;;;;5036779;28;20449;-84
2023/08/14 06:15:49;;;;;;;5.30;2.97;;;18.50;99.90;;;;;;5035813;28;20477;-84
2023/08/14 06:18:16;;;;;;;7.00;3.60;;;18.60;99.90;;;;;;5035764;28;20485;-84
2023/08/14 06:20:43;;;;;;;8.60;3.47;;;18.70;99.90;;;;;;5035541;28;20470;-84
2023/08/14 06:23:10;;;;;;;5.83;3.23;;;18.90;99.90;;;;;;5035289;28;20452;-84
2023/08/14 06:25:37;;;;;;;5.30;3.00;;;18.90;99.90;;;;;;5035599;28;20448;-83
2023/08/14 06:28:04;;;;;;;8.70;3.03;;;18.90;99.90;;;;;;5034108;28;20483;-84
2023/08/14 06:30:31;;;;;;;9.70;3.17;;;19.00;99.90;;;;;;5036163;28;20539;-85
2023/08/14 06:32:59;;;;;;;4.93;3.33;;;19.10;99.90;;;;;;5037954;28;20881;-84
2023/08/14 06:35:26;;;;;;;8.30;3.73;;;19.20;99.90;;;;;;5037139;28;20528;-83
2023/08/14 06:37:53;;;;;;;5.37;3.27;;;19.30;99.90;;;;;;5045144;28;20605;-83
2023/08/14 06:40:19;;;;;;;9.30;3.40;;;19.30;99.90;;;;;;5037930;28;20441;-83
2023/08/14 06:42:46;;;;;;;5.73;2.93;;;19.40;99.90;;;;;;5037754;28;20452;-82
2023/08/14 06:45:13;;;;;;;5.33;2.97;;;19.50;99.90;;;;;;5037038;28;20449;-83
2023/08/14 06:47:45;;;;;;;6.03;2.93;;;19.60;99.90;;;;;;5038278;28;20504;-83
2023/08/14 06:50:13;;;;;;;6.30;2.53;;;19.70;99.90;;;;;;5038274;28;20456;-83
2023/08/14 06:52:40;;;;;;;6.23;3.23;;;19.70;99.90;;;;;;5039274;28;20528;-83
2023/08/14 06:55:08;;;;;;;3.70;2.77;;;19.80;99.90;;;;;;5038429;28;20448;-82
2023/08/14 06:57:35;;;;;;;7.07;3.03;;;19.90;99.90;;;;;;5038652;28;20496;-83
2023/08/14 07:00:06;;;;;;;8.37;3.37;;;20.00;99.90;;;;;;5038657;28;20492;-83
2023/08/14 07:02:33;;;;;;;6.00;3.00;;;20.10;99.90;;;;;;5039834;28;21033;-83
2023/08/14 07:05:00;;;;;;;6.17;3.27;;;20.10;99.90;;;;;;5041057;28;20455;-84
2023/08/14 07:07:28;;;;;;;7.37;3.60;;;20.20;99.90;;;;;;5040545;28;20478;-84
2023/08/14 07:09:55;;;;;;;6.80;3.53;;;20.20;99.90;;;;;;5040659;28;20548;-83
2023/08/14 07:12:22;;;;;;;6.40;3.37;;;20.20;99.90;;;;;;5044171;28;20500;-85
2023/08/14 07:14:49;;;;;;;8.47;3.83;;;20.30;99.90;;;;;;5042727;28;20952;-84
2023/08/14 07:17:16;;;;;;;5.80;3.10;;;20.40;99.90;;;;;;5042411;28;20494;-84
2023/08/14 07:19:43;;;;;;;4.83;2.80;;;20.50;99.90;;;;;;5040973;28;20527;-85
2023/08/14 07:22:10;;;;;;;5.90;3.20;;;20.60;99.90;;;;;;5041160;28;20449;-83
2023/08/14 07:24:40;;;;;;;7.33;3.03;;;20.70;99.90;;;;;;5041102;28;20445;-83
2023/08/14 07:27:07;;;;;;;11.97;3.77;;;20.80;99.90;;;;;;5040497;28;21004;-85
2023/08/14 07:29:34;;;;;;;4.73;2.57;;;20.90;99.90;;;;;;5040871;28;20496;-84
2023/08/14 07:32:01;;;;;;;3.70;2.27;;;20.90;1.00;;;;;;5041315;28;20459;-84
2023/08/14 07:34:27;;;;;;;5.40;2.80;;;20.90;1.00;;;;;;5040460;28;20504;-85
2023/08/14 07:36:54;;;;;;;7.53;3.17;;;21.00;64.70;;;;;;5040359;28;20534;-84
2023/08/14 07:39:21;;;;;;;9.80;2.90;;;21.00;15.60;;;;;;5039701;28;20480;-84
2023/08/14 07:41:49;;;;;;;6.57;3.40;;;21.00;90.50;;;;;;5041124;28;20551;-86
2023/08/14 07:44:16;;;;;;;8.07;3.17;;;21.10;95.80;;;;;;5039667;28;20448;-86
2023/08/14 07:46:43;;;;;;;7.13;3.10;;;21.10;99.90;;;;;;5042475;28;20541;-84
2023/08/14 07:49:10;;;;;;;12.90;3.87;;;21.10;99.90;;;;;;5052497;28;20571;-84
2023/08/14 07:51:36;;;;;;;5.30;3.40;;;21.10;99.90;;;;;;5054279;28;20472;-84
2023/08/14 07:54:04;;;;;;;5.73;3.57;;;21.10;99.90;;;;;;5054509;28;20504;-83
2023/08/14 07:56:31;;;;;;;7.40;3.47;;;21.20;99.90;;;;;;5053857;28;20468;-86
2023/08/14 07:59:00;;;;;;;4.20;2.40;;;21.20;99.90;;;;;;5053525;28;20473;-83
2023/08/14 08:01:27;;;;;;;6.00;2.97;;;21.30;99.90;;;;;;5042634;28;20908;-85
2023/08/14 08:03:54;;;;;;;6.57;2.80;;;21.30;99.90;;;;;;5041003;28;20472;-83
2023/08/14 08:06:20;;;;;;;9.10;3.03;;;21.40;99.90;;;;;;5040211;28;20476;-83
2023/08/14 08:08:47;;;;;;;8.50;4.33;;;21.50;99.90;;;;;;5040160;28;20530;-84
2023/08/14 08:11:14;;;;;;;5.77;3.40;;;21.50;99.90;;;;;;5040008;28;20452;-82
2023/08/14 08:13:42;;;;;;;6.23;2.93;;;21.60;99.90;;;;;;5040626;28;20449;-84
2023/08/14 08:16:10;;;;;;;6.93;2.87;;;21.60;47.60;;;;;;5039784;28;20460;-82
2023/08/14 08:18:37;;;;;;;6.97;2.80;;;21.70;23.50;;;;;;5039523;28;20531;-84
2023/08/14 08:21:04;;;;;;;5.50;2.50;;;21.80;1.00;;;;;;5039176;28;20487;-84
2023/08/14 08:23:31;;;;;;;3.90;3.03;;;21.90;1.00;;;;;;5038000;28;20477;-83
2023/08/14 08:25:58;;;;;;;8.67;2.43;;;22.00;1.00;;;;;;5037283;28;20453;-84
2023/08/14 08:28:26;;;;;;;4.70;2.60;;;22.00;10.10;;;;;;5036610;28;20508;-82
2023/08/14 08:30:53;;;;;;;5.87;2.70;;;22.00;99.90;;;;;;5037895;28;20445;-82
2023/08/14 08:33:21;;;;;;;4.40;2.23;;;22.00;99.90;;;;;;5032982;28;20451;-84
2023/08/14 08:35:48;;;;;;;6.47;2.50;;;22.00;1.00;;;;;;5038649;28;20455;-84
2023/08/14 08:38:16;;;;;;;4.53;2.70;;;21.90;1.00;;;;;;5038462;28;20584;-83
2023/08/14 08:40:47;;;;;;;4.60;2.40;;;21.80;1.00;;;;;;5039080;28;20459;-83
2023/08/14 08:43:15;;;;;;;7.00;2.47;;;21.80;1.00;;;;;;5039539;28;20540;-84
2023/08/14 08:45:49;;;;;;;5.20;2.47;;;21.90;1.00;;;;;;5039266;28;20484;-85
2023/08/14 08:48:18;;;;;;;6.27;2.67;;;22.00;1.00;;;;;;5038956;28;20450;-83
2023/08/14 08:50:48;;;;;;;5.53;2.17;;;22.00;99.90;;;;;;5020161;28;20522;-85
2023/08/14 08:53:16;;;;;;;6.60;2.40;;;22.20;1.00;;;;;;5022847;28;20445;-84
2023/08/14 08:55:43;;;;;;;5.40;2.10;;;22.30;1.00;;;;;;5018591;28;20450;-85
2023/08/14 08:58:11;;;;;;;4.70;2.40;;;22.40;99.90;;;;;;5019092;28;20572;-85
2023/08/14 09:00:38;;;;;;;6.40;2.30;;;22.50;1.00;;;;;;5037280;28;20461;-84
2023/08/14 09:03:05;;;;;;;5.30;2.63;;;22.60;1.00;;;;;;5038384;28;20453;-83
2023/08/14 09:05:33;;;;;;;5.70;2.53;;;22.70;1.00;;;;;;5038359;28;20456;-85
2023/08/14 09:08:01;;;;;;;5.20;2.30;;;22.80;1.00;;;;;;5038245;28;20471;-84
2023/08/14 09:10:28;;;;;;;7.10;3.03;;;22.90;1.00;;;;;;5038805;28;20984;-83
2023/08/14 09:12:56;;;;;;;6.40;2.90;;;23.00;52.20;;;;;;5038966;28;20541;-83
2023/08/14 09:15:24;;;;;;;8.90;2.90;;;23.20;99.90;;;;;;5038100;28;20488;-84
2023/08/14 09:17:51;;;;;;;7.00;2.70;;;23.30;99.90;;;;;;5037751;28;20491;-84
2023/08/14 09:20:19;;;;;;;6.10;2.40;;;23.40;1.00;;;;;;5037573;28;21024;-86
2023/08/14 09:22:46;;;;;;;6.53;2.93;;;23.60;99.90;;;;;;5037242;28;20870;-85
2023/08/14 09:25:15;;;;;;;4.20;2.20;;;23.70;99.90;;;;;;5037205;28;20535;-83
2023/08/14 09:27:43;;;;;;;5.13;2.63;;;23.80;1.00;;;;;;5037238;28;20468;-82
2023/08/14 09:30:13;;;;;;;6.23;2.43;;;23.90;99.90;;;;;;5037515;28;20453;-83
2023/08/14 09:32:40;;;;;;;5.50;2.53;;;24.00;99.90;;;;;;5034434;28;20492;-83
2023/08/14 09:35:07;;;;;;;5.10;2.50;;;24.10;99.90;;;;;;5036862;28;20524;-84
2023/08/14 09:37:35;;;;;;;6.30;2.30;;;24.30;1.00;;;;;;5036988;28;21025;-83
2023/08/14 09:40:16;;;;;;;6.10;2.20;;;24.40;1.00;;;;;;5037131;28;20535;-84
2023/08/14 09:42:43;;;;;;;10.00;3.17;;;24.60;1.00;;;;;;5037181;28;20449;-83
2023/08/14 09:45:12;;;;;;;5.50;2.40;;;24.70;99.90;;;;;;5037183;28;20457;-83
2023/08/14 09:47:40;;;;;;;6.03;2.27;;;24.90;99.90;;;;;;5035524;28;20476;-85
2023/08/14 09:50:08;;;;;;;7.23;2.50;;;25.10;99.90;;;;;;5034940;28;20523;-85
2023/08/14 09:52:35;;;;;;;6.63;2.17;;;25.30;1.00;;;;;;5035533;28;20472;-83
2023/08/14 09:55:03;;;;;;;8.67;2.70;;;25.50;1.00;;;;;;5036592;28;20453;-84
2023/08/14 09:57:31;;;;;;;4.70;2.40;;;25.60;1.00;;;;;;5033109;28;20493;-84
2023/08/14 09:59:58;;;;;;;4.17;2.40;;;25.70;99.90;;;;;;5036180;28;20547;-84
2023/08/14 10:02:26;;;;;;;4.13;2.57;;;25.90;99.90;;;;;;5036397;28;20449;-83
2023/08/14 10:04:54;;;;;;;5.87;2.07;;;26.00;1.00;;;;;;5035220;28;20540;-83
2023/08/14 10:07:24;;;;;;;6.80;2.10;;;26.30;1.00;;;;;;5035628;28;20511;-83
2023/08/14 10:09:55;;;;;;;3.80;2.00;;;26.50;99.90;;;;;;5035788;28;20956;-83
2023/08/14 10:12:24;;;;;;;6.77;1.97;;;26.70;99.90;;;;;;5035723;28;20476;-85
2023/08/14 10:15:08;;;;;;;3.87;1.87;;;26.80;1.00;;;;;;5034943;28;20465;-85
2023/08/14 10:17:39;;;;;;;3.80;1.90;;;27.00;1.00;;;;;;5034937;28;20480;-83
2023/08/14 10:20:07;;;;;;;4.37;2.03;;;27.10;1.00;;;;;;5035873;28;20643;-84
2023/08/14 10:22:35;;;;;;;4.00;2.10;;;27.30;1.00;;;;;;5035676;28;20950;-84
2023/08/14 10:25:06;;;;;;;6.37;2.10;;;27.40;1.00;;;;;;5035695;28;20540;-82
2023/08/14 10:27:33;;;;;;;4.67;1.90;;;27.60;1.00;;;;;;5036088;28;20472;-83
2023/08/14 10:30:02;;;;;;;5.13;2.10;;;27.70;1.00;;;;;;5036366;28;20539;-83
2023/08/14 10:32:29;;;;;;;4.53;2.03;;;27.90;87.40;;;;;;5037724;28;20552;-83
2023/08/14 10:34:57;;;;;;;4.30;2.40;;;28.00;1.00;;;;;;5038665;28;20487;-84
2023/08/14 10:37:28;;;;;;;3.20;2.00;;;28.10;1.00;;;;;;5036446;28;20481;-84
2023/08/14 10:40:12;;;;;;;4.90;1.93;;;28.30;1.00;;;;;;5036675;28;21014;-84
2023/08/14 10:42:42;;;;;;;5.27;2.57;;;28.40;1.00;;;;;;5035722;28;20535;-85
2023/08/14 10:45:11;;;;;;;5.40;2.30;;;28.50;1.00;;;;;;5036174;28;20453;-84
2023/08/14 10:47:38;;;;;;;5.77;1.73;;;28.50;1.00;;;;;;5036756;28;20465;-83
2023/08/14 10:50:14;;;;;;;4.27;2.13;;;28.70;1.00;;;;;;5037206;28;20535;-82
2023/08/14 10:52:45;;;;;;;4.23;2.03;;;28.90;1.00;;;;;;5037410;28;21055;-83
2023/08/14 10:55:16;;;;;;;3.37;2.00;;;29.00;1.00;;;;;;5035922;28;20459;-83
2023/08/14 10:57:43;;;;;;;5.30;2.20;;;29.10;1.00;;;;;;5036848;28;20477;-84
2023/08/14 11:00:23;;;;;;;5.30;2.37;;;29.20;1.00;;;;;;5036164;28;20459;-84
2023/08/14 11:02:51;;;;;;;4.50;2.03;;;29.10;1.00;;;;;;5036793;28;20525;-83
2023/08/14 11:05:18;;;;;;;4.23;1.97;;;29.20;1.00;;;;;;5035111;28;20465;-82
2023/08/14 11:07:57;;;;;;;6.17;2.43;;;29.40;1.00;;;;;;5035684;28;20536;-82
2023/08/14 11:10:25;;;;;;;4.70;1.70;;;29.40;1.00;;;;;;5034822;28;20531;-84
2023/08/14 11:12:53;;;;;;;5.73;1.93;;;29.60;1.00;;;;;;5037088;28;20471;-84
2023/08/14 11:15:21;;;;;;;4.77;1.87;;;29.70;1.00;;;;;;5036635;28;20535;-83
2023/08/14 11:17:48;;;;;;;6.93;2.20;;;29.80;1.00;;;;;;5036598;28;20957;-84
2023/08/14 11:20:15;;;;;;;9.43;2.60;;;29.90;1.00;;;;;;5035939;28;20548;-85
2023/08/14 11:22:45;;;;;;;5.83;1.90;;;29.90;1.00;;;;;;5035985;28;20449;-83
2023/08/14 11:25:13;;;;;;;4.27;1.87;;;29.90;1.00;;;;;;5039619;28;20487;-84
2023/08/14 11:27:40;;;;;;;7.00;2.40;;;29.90;1.00;;;;;;5039705;28;20489;-83
2023/08/14 11:30:08;;;;;;;6.73;2.13;;;29.80;1.00;;;;;;5039330;28;20455;-83
2023/08/14 11:32:36;;;;;;;4.57;2.10;;;29.80;1.00;;;;;;5038902;28;20507;-83
2023/08/14 11:35:06;;;;;;;3.23;1.97;;;29.90;1.00;;;;;;5068028;22;20493;-81
2023/08/14 11:37:33;;;;;;;6.93;1.83;;;29.90;1.00;;;;;;5039567;28;20539;-80
2023/08/14 11:40:05;;;;;;;6.80;3.07;;;30.10;1.00;;;;;;5039635;28;20474;-81
2023/08/14 11:42:33;;;;;;;10.60;2.60;;;30.40;1.00;;;;;;5039778;28;20455;-81
2023/08/14 11:45:03;;;;;;;5.07;1.73;;;30.80;1.00;;;;;;5039613;28;20471;-83
2023/08/14 11:47:30;;;;;;;4.33;1.83;;;30.90;1.00;;;;;;5039655;28;20488;-83
2023/08/14 11:49:58;;;;;;;4.87;2.30;;;30.50;1.00;;;;;;5039479;28;20528;-82
2023/08/14 11:52:26;;;;;;;8.20;2.00;;;30.30;1.00;;;;;;5039234;28;20481;-82
2023/08/14 11:54:53;;;;;;;7.13;2.50;;;30.10;1.00;;;;;;5039308;28;21080;-82
2023/08/14 11:57:23;;;;;;;5.60;2.30;;;29.80;1.00;;;;;;5038732;28;20895;-82
2023/08/14 11:59:50;;;;;;;5.10;2.10;;;29.30;1.00;;;;;;5038663;28;20484;-83
2023/08/14 12:02:19;;;;;;;7.63;1.97;;;29.00;1.00;;;;;;5039458;28;20615;-82
2023/08/14 12:04:46;;;;;;;6.70;2.37;;;28.80;1.00;;;;;;5036390;28;20473;-84
2023/08/14 12:07:19;;;;;;;6.57;1.97;;;28.70;1.00;;;;;;5038223;28;20535;-83
2023/08/14 12:09:46;;;;;;;6.30;2.00;;;28.90;1.00;;;;;;5038852;28;21194;-82
2023/08/14 12:12:14;;;;;;;3.53;1.77;;;29.20;1.00;;;;;;5038800;28;20477;-82
2023/08/14 12:14:42;;;;;;;7.07;2.00;;;29.60;1.00;;;;;;5038394;28;20516;-84
2023/08/14 12:17:10;;;;;;;4.80;2.20;;;29.60;1.00;;;;;;5038688;28;20544;-82
2023/08/14 12:19:38;;;;;;;6.03;2.57;;;29.50;1.00;;;;;;5039151;28;20492;-82
2023/08/14 12:22:06;;;;;;;7.33;2.00;;;29.40;1.00;;;;;;5029151;28;20545;-83
2023/08/14 12:24:42;;;;;;;4.97;2.20;;;29.50;1.00;;;;;;5019153;28;20474;-82
2023/08/14 12:27:15;;;;;;;5.03;1.90;;;29.80;1.00;;;;;;5034412;28;20463;-83
2023/08/14 12:29:42;;;;;;;7.67;3.17;;;30.00;1.00;;;;;;5037858;28;20449;-82
2023/08/14 12:32:16;;;;;;;6.77;2.57;;;30.20;1.00;;;;;;5038574;28;20453;-83
2023/08/14 12:34:44;;;;;;;5.90;2.50;;;30.00;1.00;;;;;;5038548;28;20499;-82
2023/08/14 12:37:14;;;;;;;4.57;2.27;;;30.30;1.00;;;;;;5038158;28;20543;-83
2023/08/14 12:39:43;;;;;;;3.50;2.07;;;30.30;1.00;;;;;;5037949;28;20493;-83
2023/08/14 12:42:12;;;;;;;5.73;2.20;;;30.50;1.00;;;;;;5038646;28;20484;-84
2023/08/14 12:44:39;;;;;;;6.87;2.50;;;30.60;1.00;;;;;;5039115;28;20551;-82
2023/08/14 12:47:06;;;;;;;3.83;2.37;;;30.80;1.00;;;;;;5037716;28;20463;-80
2023/08/14 12:49:36;;;;;;;4.53;2.10;;;31.00;1.00;;;;;;5038049;28;20556;-82
2023/08/14 12:52:08;;;;;;;5.20;2.03;;;30.90;1.00;;;;;;5037878;28;20456;-84
2023/08/14 12:54:35;;;;;;;6.47;2.33;;;30.80;1.00;;;;;;5037892;28;20905;-81